Livingston, Montana
Current Conditions -  °F | °C
As of 5:53 PM on Monday 22 Dec 2014 (Local Time) from KLVM Reporting Station
Light Snow Light Snow  
Wind Chill: 23°   Ceiling: 4500
Heat Index: 31°   Visibility: 9mi
Dew Point: 25°   Wind: 8mph
Humidity: 79%   Direction: 270°W
Pressure: 30.04"   Gusts: NA
Location:  45.66°N, 110.56°W
Report Text: KLVM 230053Z AUTO 27007KT 9SM -SN FEW013 BKN045 OVC100 M01/M04 A3004 RMK AO2 SNB00E14B32 SLP196 P0000 T10061039
Loading
Personal Weather Stations






























Interactive Weather Map New forecast layout! Learn more

10-Day Weather Forecast

Advertisements
Track Severe Weather on mobile